Time;durP1;ratioP1;P1;durP2;ratioP2;P2;SDS_P1;SDS_P2;PMS_P1;PMS_P2;Temp;Humidity;BMP_temperature;BMP_pressure;BME280_temperature;BME280_humidity;BME280_pressure;Samples;Min_cycle;Max_cycle;Signal;HPM_P1;HPM_P2
2022/12/15 00:39:10;;;;;;;42.03;18.50;;;-5.60;99.90;;;;;;5091073;28;20048;-65
2022/12/15 00:41:36;;;;;;;42.23;18.23;;;-5.60;99.90;;;;;;5090903;28;20024;-65
2022/12/15 00:44:01;;;;;;;41.17;18.03;;;-5.60;99.90;;;;;;5096011;28;20089;-65
2022/12/15 01:22:06;;;;;;;43.13;18.73;;;-5.60;99.90;;;;;;5090683;28;20096;-65
2022/12/15 01:24:31;;;;;;;39.93;19.23;;;-5.60;99.90;;;;;;5090841;28;20040;-65
2022/12/15 01:26:57;;;;;;;38.83;20.33;;;-5.60;99.90;;;;;;5090881;28;20405;-65
2022/12/15 01:29:24;;;;;;;44.17;20.43;;;-5.50;99.90;;;;;;5096232;28;20418;-65
2022/12/15 01:31:49;;;;;;;43.17;20.40;;;-5.50;99.90;;;;;;5090488;28;20161;-65
2022/12/15 01:34:16;;;;;;;37.97;16.13;;;-5.50;99.90;;;;;;5091926;28;20506;-65
2022/12/15 01:36:41;;;;;;;41.37;19.43;;;-5.50;99.90;;;;;;5090409;28;20036;-65
2022/12/15 01:39:07;;;;;;;43.87;19.03;;;-5.60;99.90;;;;;;5090632;28;20047;-65
2022/12/15 01:41:32;;;;;;;36.80;17.30;;;-5.60;99.90;;;;;;5072477;28;20036;-65
2022/12/15 01:44:19;;;;;;;39.40;18.70;;;-5.60;99.90;;;;;;5098977;28;20111;-65
2022/12/15 01:46:47;;;;;;;37.57;19.07;;;-5.70;99.90;;;;;;5094180;28;20065;-65
2022/12/15 01:49:19;;;;;;;42.87;19.10;;;-5.60;99.90;;;;;;5094629;28;20508;-65
2022/12/15 01:51:51;;;;;;;37.70;17.00;;;-5.60;99.90;;;;;;5094937;28;20048;-65
2022/12/15 01:54:24;;;;;;;44.50;19.03;;;-5.60;99.90;;;;;;5094019;28;20663;-65
2022/12/15 01:56:54;;;;;;;40.23;18.50;;;-5.70;99.90;;;;;;5110946;28;20042;-65
2022/12/15 01:59:44;;;;;;;37.73;18.40;;;-5.70;99.90;;;;;;5110089;28;20082;-65
2022/12/15 02:02:13;;;;;;;36.73;17.93;;;-5.70;99.90;;;;;;5100446;28;20130;-65
2022/12/15 02:04:39;;;;;;;52.30;21.03;;;-5.60;99.90;;;;;;5094154;28;20457;-65
2022/12/15 02:07:04;;;;;;;41.07;20.77;;;-5.50;99.90;;;;;;5095471;28;20153;-65
2022/12/15 02:09:30;;;;;;;38.33;17.77;;;-5.40;99.90;;;;;;5084510;28;20066;-65
2022/12/15 02:12:06;;;;;;;38.67;19.20;;;-5.40;99.90;;;;;;5093236;28;20042;-65
2022/12/15 02:14:47;;;;;;;45.40;18.93;;;-5.40;99.90;;;;;;5102207;28;20464;-65
2022/12/15 02:17:36;;;;;;;38.13;19.40;;;-5.50;99.90;;;;;;5093522;28;20058;-65
2022/12/15 02:20:22;;;;;;;38.47;18.30;;;-5.40;99.90;;;;;;5093451;28;20290;-64
2022/12/15 02:22:48;;;;;;;37.53;17.10;;;-5.40;99.90;;;;;;5091382;28;20040;-65
2022/12/15 02:25:37;;;;;;;37.40;17.87;;;-5.40;99.90;;;;;;5092849;28;20429;-65
2022/12/15 02:28:29;;;;;;;36.73;17.10;;;-5.40;99.90;;;;;;5093407;28;20031;-65
2022/12/15 02:34:13;;;;;;;39.07;19.10;;;-5.50;99.90;;;;;;5091460;28;20575;-65
2022/12/15 02:36:45;;;;;;;39.28;19.40;;;-5.40;99.90;;;;;;5061236;28;20126;-65
2022/12/15 02:39:12;;;;;;;40.50;19.90;;;-5.40;99.90;;;;;;5113968;28;20040;-65
2022/12/15 02:41:44;;;;;;;45.27;20.93;;;-5.40;99.90;;;;;;5080182;28;20054;-64
2022/12/15 02:44:22;;;;;;;39.07;19.70;;;-5.40;99.90;;;;;;5105662;28;20039;-65
2022/12/15 02:47:14;;;;;;;39.97;20.20;;;-5.40;99.90;;;;;;5114007;28;20036;-65
2022/12/15 02:50:07;;;;;;;42.77;21.30;;;-5.30;99.90;;;;;;5093701;28;20036;-65
2022/12/15 02:52:44;;;;;;;39.77;17.77;;;-5.30;99.90;;;;;;5093189;28;20036;-64
2022/12/15 02:55:25;;;;;;;36.57;17.27;;;-5.30;99.90;;;;;;5093822;28;20036;-66
2022/12/15 02:57:53;;;;;;;35.28;17.10;;;-5.30;99.90;;;;;;5090553;28;20024;-65
2022/12/15 03:00:19;;;;;;;39.93;18.67;;;-5.30;99.90;;;;;;5074751;28;20044;-65
2022/12/15 03:02:52;;;;;;;35.63;17.07;;;-5.30;99.90;;;;;;5074329;28;20127;-65
2022/12/15 03:05:19;;;;;;;44.03;19.03;;;-5.30;99.90;;;;;;5093365;28;20045;-65
2022/12/15 03:07:49;;;;;;;39.33;18.97;;;-5.30;99.90;;;;;;5090546;28;20036;-65
2022/12/15 03:10:15;;;;;;;41.67;19.70;;;-5.30;99.90;;;;;;5092619;28;20036;-65
2022/12/15 03:12:40;;;;;;;38.00;19.90;;;-5.30;99.90;;;;;;5072413;28;20051;-64
2022/12/15 03:15:06;;;;;;;41.03;21.90;;;-5.30;99.90;;;;;;5074230;28;20124;-65
2022/12/15 03:17:32;;;;;;;40.57;19.70;;;-5.30;99.90;;;;;;5092736;28;20498;-65
2022/12/15 03:19:58;;;;;;;34.47;17.70;;;-5.30;99.90;;;;;;5098095;28;20068;-65
2022/12/15 03:22:24;;;;;;;38.03;18.73;;;-5.20;99.90;;;;;;5103506;28;20043;-65
2022/12/15 03:24:49;;;;;;;40.40;17.90;;;-5.30;99.90;;;;;;5075698;28;20036;-65
2022/12/15 03:27:15;;;;;;;38.73;18.13;;;-5.30;99.90;;;;;;5092478;28;20123;-65
2022/12/15 03:29:40;;;;;;;35.53;16.90;;;-5.40;99.90;;;;;;5088896;28;20043;-65
2022/12/15 03:32:06;;;;;;;32.50;16.90;;;-5.40;99.90;;;;;;5099390;28;20031;-65
2022/12/15 03:34:32;;;;;;;34.37;16.60;;;-5.40;99.90;;;;;;5092152;28;20036;-65
2022/12/15 03:36:58;;;;;;;36.30;16.87;;;-5.40;99.90;;;;;;5092546;28;20087;-64
2022/12/15 03:39:23;;;;;;;36.93;17.73;;;-5.40;99.90;;;;;;5090877;28;20040;-65
2022/12/15 03:41:49;;;;;;;37.00;17.43;;;-5.40;99.90;;;;;;5099146;28;20060;-65
2022/12/15 03:44:15;;;;;;;32.30;16.57;;;-5.30;99.90;;;;;;5091535;28;20394;-65
2022/12/15 03:46:40;;;;;;;40.97;18.50;;;-5.30;99.90;;;;;;5089866;28;20390;-65
2022/12/15 03:49:06;;;;;;;34.70;18.13;;;-5.30;99.90;;;;;;5091881;28;20044;-64
2022/12/15 03:51:32;;;;;;;36.87;18.17;;;-5.30;99.90;;;;;;5091421;28;20036;-65
2022/12/15 03:53:57;;;;;;;37.33;17.33;;;-5.30;99.90;;;;;;5092355;28;20085;-64
2022/12/15 03:56:23;;;;;;;36.57;17.20;;;-5.30;99.90;;;;;;5099948;28;20038;-64
2022/12/15 03:58:49;;;;;;;38.78;19.13;;;-5.20;99.90;;;;;;5099236;28;20461;-64
2022/12/15 04:01:30;;;;;;;40.00;17.25;;;-5.20;99.90;;;;;;5091704;28;20032;-64
2022/12/15 04:03:56;;;;;;;35.83;18.02;;;-5.20;99.90;;;;;;5098679;28;20111;-64
2022/12/15 04:06:22;;;;;;;34.40;17.20;;;-5.20;99.90;;;;;;5104103;28;20124;-65
2022/12/15 04:08:48;;;;;;;36.87;17.33;;;-5.20;99.90;;;;;;5091544;28;20068;-64
2022/12/15 04:11:14;;;;;;;34.20;17.05;;;-5.10;99.90;;;;;;5091980;28;20040;-64
2022/12/15 04:13:39;;;;;;;37.17;17.90;;;-5.20;99.90;;;;;;5080468;28;20067;-64
2022/12/15 04:16:05;;;;;;;36.42;18.67;;;-5.10;99.90;;;;;;5092671;28;20035;-64
2022/12/15 04:18:31;;;;;;;41.80;19.47;;;-5.10;99.90;;;;;;5091921;28;20040;-65
2022/12/15 04:20:57;;;;;;;42.60;20.10;;;-5.10;99.90;;;;;;5091288;28;20051;-65
2022/12/15 04:23:22;;;;;;;37.22;18.90;;;-5.10;99.90;;;;;;5091412;28;20028;-66
2022/12/15 05:32:06;;;;;;;30.23;14.70;;;-5.00;99.90;;;;;;5081330;28;20094;-66
2022/12/15 05:34:34;;;;;;;32.83;16.08;;;-5.00;99.90;;;;;;5075064;28;20072;-64
2022/12/15 05:37:01;;;;;;;32.20;16.52;;;-5.10;99.90;;;;;;5093853;28;20076;-65
2022/12/15 05:39:27;;;;;;;37.13;18.25;;;-5.10;99.90;;;;;;5092239;28;20037;-63
2022/12/15 05:41:54;;;;;;;28.50;15.13;;;-5.10;99.90;;;;;;5091116;28;20043;-65
2022/12/15 05:44:21;;;;;;;31.52;15.25;;;-5.20;99.90;;;;;;5092120;28;20059;-65
2022/12/15 05:46:47;;;;;;;35.50;16.63;;;-5.20;99.90;;;;;;5092865;28;20406;-64
2022/12/15 05:49:15;;;;;;;36.63;15.70;;;-5.20;99.90;;;;;;5094729;28;20599;-64
2022/12/15 05:51:43;;;;;;;31.57;15.37;;;-5.20;99.90;;;;;;5095099;28;20036;-68
2022/12/15 05:54:10;;;;;;;33.35;16.40;;;-5.20;99.90;;;;;;5091200;28;20035;-67
2022/12/15 05:56:36;;;;;;;32.80;16.43;;;-5.30;99.90;;;;;;5098954;28;20371;-67
2022/12/15 05:59:02;;;;;;;32.20;15.07;;;-5.30;99.90;;;;;;5093862;28;20039;-67
2022/12/15 06:01:29;;;;;;;36.03;17.20;;;-5.20;99.90;;;;;;5086800;28;20474;-67
2022/12/15 06:03:56;;;;;;;36.33;17.03;;;-5.20;99.90;;;;;;5097951;28;20043;-67
2022/12/15 06:06:22;;;;;;;31.73;17.00;;;-5.20;99.90;;;;;;5102487;28;20062;-68
2022/12/15 06:08:47;;;;;;;32.85;16.70;;;-5.20;99.90;;;;;;5099371;28;20066;-68
2022/12/15 06:11:15;;;;;;;38.95;17.88;;;-5.20;99.90;;;;;;5102073;28;20043;-68
2022/12/15 06:13:41;;;;;;;35.92;16.52;;;-5.10;99.90;;;;;;5101008;28;20096;-68
2022/12/15 06:16:18;;;;;;;30.20;15.67;;;-5.20;99.90;;;;;;5080803;28;20490;-68
2022/12/15 06:18:47;;;;;;;34.33;15.23;;;-5.20;99.90;;;;;;5083488;28;20055;-67
2022/12/15 06:21:16;;;;;;;33.07;15.97;;;-5.30;99.90;;;;;;5085135;28;20516;-67
2022/12/15 06:23:43;;;;;;;28.27;14.37;;;-5.40;99.90;;;;;;5091552;28;20425;-68
2022/12/15 06:26:25;;;;;;;37.97;17.53;;;-5.40;99.90;;;;;;5091489;28;20086;-66
2022/12/15 06:28:54;;;;;;;30.57;14.70;;;-5.40;99.90;;;;;;5089966;28;20682;-66
2022/12/15 06:31:24;;;;;;;36.63;17.50;;;-5.30;99.90;;;;;;5089946;28;20044;-66
2022/12/15 06:33:52;;;;;;;34.90;16.87;;;-5.30;99.90;;;;;;5077321;28;20053;-66
2022/12/15 06:36:19;;;;;;;36.40;18.13;;;-5.20;99.90;;;;;;5095166;28;20032;-67
2022/12/15 06:38:44;;;;;;;31.00;15.23;;;-5.20;99.90;;;;;;5108630;28;20478;-67
2022/12/15 06:41:13;;;;;;;43.70;20.40;;;-5.20;99.90;;;;;;5108145;28;20563;-69
2022/12/15 06:43:39;;;;;;;36.80;17.13;;;-5.20;99.90;;;;;;5075611;28;20040;-66
2022/12/15 06:46:05;;;;;;;33.97;16.80;;;-5.10;99.90;;;;;;5093204;28;20028;-68
2022/12/15 06:48:30;;;;;;;34.33;16.00;;;-5.20;99.90;;;;;;5098003;28;20134;-67
2022/12/15 06:51:02;;;;;;;36.80;16.00;;;-5.10;99.90;;;;;;5098696;28;20127;-68
2022/12/15 06:53:28;;;;;;;36.72;16.90;;;-5.10;99.90;;;;;;5092884;28;20462;-67
2022/12/15 06:55:59;;;;;;;37.43;15.90;;;-5.10;99.90;;;;;;5092551;28;20537;-65
2022/12/15 06:58:25;;;;;;;36.30;17.75;;;-5.20;99.90;;;;;;5091027;28;20456;-65
2022/12/15 07:00:50;;;;;;;33.57;16.23;;;-5.10;99.90;;;;;;5091660;28;20036;-65
2022/12/15 07:03:17;;;;;;;36.90;17.60;;;-5.10;99.90;;;;;;5096264;28;20053;-65
2022/12/15 07:05:44;;;;;;;34.33;16.17;;;-5.10;99.90;;;;;;5113464;28;20036;-65
2022/12/15 07:08:14;;;;;;;35.83;18.33;;;-5.00;99.90;;;;;;5090573;28;20507;-66
2022/12/15 07:10:42;;;;;;;36.72;18.25;;;-5.10;99.90;;;;;;5091936;28;20539;-65
2022/12/15 07:13:11;;;;;;;39.00;18.00;;;-5.00;99.90;;;;;;5093000;28;20115;-65
2022/12/15 07:15:38;;;;;;;37.73;17.63;;;-5.00;99.90;;;;;;5084871;28;20123;-65
2022/12/15 07:18:04;;;;;;;33.75;15.30;;;-5.00;99.90;;;;;;5092167;28;20032;-65
2022/12/15 07:20:29;;;;;;;32.70;15.10;;;-5.00;99.90;;;;;;5092189;28;20483;-65
2022/12/15 07:22:55;;;;;;;42.00;16.77;;;-5.00;99.90;;;;;;5090231;28;20032;-65
2022/12/15 07:25:21;;;;;;;30.90;16.08;;;-5.10;99.90;;;;;;5091490;28;20063;-65
2022/12/15 07:27:47;;;;;;;34.97;16.10;;;-5.10;99.90;;;;;;5091939;28;20051;-65
2022/12/15 07:30:14;;;;;;;37.93;18.93;;;-5.10;99.90;;;;;;5091929;28;20040;-65
2022/12/15 07:32:40;;;;;;;41.20;16.93;;;-5.00;99.90;;;;;;5092141;28;20052;-65
2022/12/15 07:35:07;;;;;;;33.67;15.10;;;-5.00;99.90;;;;;;5090110;28;20063;-64
2022/12/15 07:37:33;;;;;;;30.75;15.35;;;-5.00;99.90;;;;;;5091631;28;20118;-65
2022/12/15 07:39:59;;;;;;;33.47;16.63;;;-5.10;99.90;;;;;;5088816;28;20549;-65
2022/12/15 07:42:24;;;;;;;34.50;16.42;;;-5.10;99.90;;;;;;5089000;28;20056;-65
2022/12/15 07:44:50;;;;;;;35.03;15.80;;;-5.10;99.90;;;;;;5091450;28;20040;-68
2022/12/15 07:47:15;;;;;;;32.95;15.88;;;-5.10;99.90;;;;;;5091806;28;20372;-66
2022/12/15 07:49:41;;;;;;;33.60;15.75;;;-5.10;99.90;;;;;;5092177;28;20127;-66
2022/12/15 07:52:07;;;;;;;32.05;17.02;;;-5.00;99.90;;;;;;5089827;28;20085;-66
2022/12/15 07:54:32;;;;;;;34.65;15.52;;;-5.00;99.90;;;;;;5095884;28;20065;-66
2022/12/15 07:56:58;;;;;;;35.80;16.88;;;-5.00;99.90;;;;;;5092011;28;20450;-66
2022/12/15 07:59:25;;;;;;;34.38;15.82;;;-4.90;99.90;;;;;;5091447;28;20644;-66
2022/12/15 08:01:51;;;;;;;35.47;16.20;;;-4.80;99.90;;;;;;5073212;28;20044;-66
2022/12/15 08:04:17;;;;;;;34.28;16.15;;;-4.70;99.90;;;;;;5092040;28;20050;-66
2022/12/15 08:06:43;;;;;;;40.58;17.40;;;-4.60;99.90;;;;;;5090771;28;20081;-66
2022/12/15 08:09:09;;;;;;;33.72;17.00;;;-4.40;99.90;;;;;;5091484;28;20036;-66
2022/12/15 08:11:35;;;;;;;37.13;17.52;;;-4.20;99.90;;;;;;5089847;28;20046;-66
2022/12/15 08:14:01;;;;;;;36.78;18.63;;;-4.10;99.90;;;;;;5092264;28;20031;-66
2022/12/15 08:16:27;;;;;;;45.88;20.10;;;-4.00;99.90;;;;;;5102397;28;20584;-66
2022/12/15 08:18:55;;;;;;;45.03;20.92;;;-3.80;99.90;;;;;;5073239;28;20053;-67
2022/12/15 08:21:21;;;;;;;41.17;19.23;;;-3.70;99.90;;;;;;5088963;28;20051;-66
2022/12/15 08:23:47;;;;;;;44.03;20.23;;;-3.60;99.90;;;;;;5092455;28;20040;-66
2022/12/15 08:26:15;;;;;;;43.25;20.23;;;-3.60;99.90;;;;;;5091449;28;20032;-66
2022/12/15 08:28:42;;;;;;;45.80;19.40;;;-3.50;99.90;;;;;;5091782;28;20115;-66
2022/12/15 08:31:16;;;;;;;42.20;19.50;;;-3.50;99.90;;;;;;5093531;28;20493;-66
2022/12/15 08:33:43;;;;;;;42.75;20.98;;;-3.50;99.90;;;;;;5092892;28;20071;-67
2022/12/15 08:36:12;;;;;;;43.15;21.02;;;-3.40;99.90;;;;;;5070334;28;20078;-66
2022/12/15 08:38:39;;;;;;;38.35;18.95;;;-3.40;99.90;;;;;;5090134;28;20719;-66
2022/12/15 08:41:16;;;;;;;42.70;20.63;;;-3.40;99.90;;;;;;5094325;28;20089;-66
2022/12/15 08:43:42;;;;;;;38.63;20.58;;;-3.30;99.90;;;;;;5081481;28;20040;-66
2022/12/15 08:46:08;;;;;;;40.67;20.50;;;-3.30;99.90;;;;;;5101007;28;20032;-66
2022/12/15 08:48:34;;;;;;;44.65;21.20;;;-3.30;99.90;;;;;;5098778;28;20453;-66
2022/12/15 08:51:01;;;;;;;37.35;19.00;;;-3.30;99.90;;;;;;5101323;28;20040;-66
2022/12/15 08:53:27;;;;;;;46.88;22.23;;;-3.30;99.90;;;;;;5096236;28;20040;-65
2022/12/15 08:55:53;;;;;;;41.97;20.98;;;-3.30;99.90;;;;;;5090436;28;20059;-65
2022/12/15 08:58:19;;;;;;;41.58;19.80;;;-3.30;99.90;;;;;;5083890;28;20158;-66
2022/12/15 09:00:46;;;;;;;39.03;21.35;;;-3.20;99.90;;;;;;5074676;28;20576;-66
2022/12/15 09:03:11;;;;;;;40.55;20.75;;;-3.20;99.90;;;;;;5093138;28;20142;-67
2022/12/15 09:05:38;;;;;;;40.67;20.63;;;-3.20;99.90;;;;;;5101880;28;20118;-66
2022/12/15 09:08:04;;;;;;;43.67;20.90;;;-3.10;99.90;;;;;;5098215;28;20058;-67
2022/12/15 09:10:30;;;;;;;34.45;18.95;;;-3.10;99.90;;;;;;5092033;28;20048;-67
2022/12/15 09:12:56;;;;;;;42.65;22.23;;;-3.00;99.90;;;;;;5090094;28;20097;-66
2022/12/15 09:15:22;;;;;;;45.97;23.45;;;-2.90;99.90;;;;;;5104131;28;20050;-67
2022/12/15 09:17:47;;;;;;;42.00;20.17;;;-2.80;99.90;;;;;;5099969;28;20051;-66
2022/12/15 09:20:14;;;;;;;40.55;18.25;;;-2.80;99.90;;;;;;5097780;28;20059;-67
2022/12/15 09:22:40;;;;;;;50.47;23.38;;;-2.70;99.90;;;;;;5087429;28;20035;-67
2022/12/15 09:25:07;;;;;;;42.42;21.10;;;-2.60;99.90;;;;;;5090728;28;20090;-67
2022/12/15 09:27:33;;;;;;;43.97;23.48;;;-2.60;99.90;;;;;;5072169;28;20538;-66
2022/12/15 09:29:59;;;;;;;46.55;24.02;;;-2.50;99.90;;;;;;5097492;28;20040;-67
2022/12/15 09:32:25;;;;;;;43.22;22.20;;;-2.50;99.90;;;;;;5079680;28;20067;-67
2022/12/15 09:34:51;;;;;;;38.65;20.77;;;-2.40;99.90;;;;;;5091859;28;20533;-67
2022/12/15 09:37:18;;;;;;;51.10;26.02;;;-2.40;99.90;;;;;;5096427;28;20039;-67
2022/12/15 09:39:46;;;;;;;45.97;23.10;;;-2.30;99.90;;;;;;5080864;28;20032;-66
2022/12/15 09:42:25;;;;;;;46.60;24.55;;;-2.20;99.90;;;;;;5093950;28;20039;-66
2022/12/15 09:45:16;;;;;;;47.60;24.55;;;-2.10;99.90;;;;;;5091752;28;20811;-66
2022/12/15 09:47:55;;;;;;;44.20;22.95;;;-2.00;99.90;;;;;;5097886;28;20149;-67
2022/12/15 09:50:28;;;;;;;43.95;22.33;;;-1.90;99.90;;;;;;5094428;28;20119;-67
2022/12/15 09:52:58;;;;;;;39.85;19.83;;;-1.90;99.90;;;;;;5090827;28;20040;-69
2022/12/15 09:55:27;;;;;;;46.22;22.30;;;-1.90;99.90;;;;;;5094100;28;20040;-67
2022/12/15 09:57:56;;;;;;;38.22;19.52;;;-1.80;99.90;;;;;;5093750;28;20051;-67
2022/12/15 10:00:39;;;;;;;39.85;20.38;;;-1.80;99.90;;;;;;5089805;28;20047;-66
2022/12/15 10:03:18;;;;;;;37.45;19.50;;;-1.70;99.90;;;;;;5092548;28;20050;-66
2022/12/15 10:06:02;;;;;;;47.75;21.15;;;-1.70;99.90;;;;;;5093705;28;20036;-66
2022/12/15 10:08:31;;;;;;;40.22;19.83;;;-1.60;99.90;;;;;;5094562;28;20047;-67
2022/12/15 10:10:58;;;;;;;41.13;20.10;;;-1.50;99.90;;;;;;5088160;28;20068;-66
2022/12/15 10:13:47;;;;;;;40.75;19.08;;;-1.40;99.90;;;;;;5104579;28;20363;-66
2022/12/15 10:16:20;;;;;;;37.58;18.60;;;-1.20;99.90;;;;;;5093856;28;20043;-66
2022/12/15 10:19:04;;;;;;;43.42;21.88;;;-1.10;99.90;;;;;;5094119;28;20047;-66
2022/12/15 10:21:31;;;;;;;43.08;23.05;;;-1.00;99.90;;;;;;5095182;28;20046;-66
2022/12/15 10:24:18;;;;;;;38.63;20.23;;;-0.90;99.90;;;;;;5091379;28;20085;-67
2022/12/15 10:26:51;;;;;;;36.35;19.08;;;-0.90;99.90;;;;;;5095951;28;20368;-66
2022/12/15 10:29:44;;;;;;;36.75;18.63;;;-0.80;99.90;;;;;;5092701;28;20028;-67
2022/12/15 10:32:18;;;;;;;34.00;19.05;;;-0.80;99.90;;;;;;5093382;28;20054;-66
2022/12/15 10:34:44;;;;;;;40.17;22.00;;;-0.70;99.90;;;;;;5090966;28;20486;-66
2022/12/15 10:37:19;;;;;;;39.15;22.80;;;-0.70;99.90;;;;;;5101639;28;20031;-66
2022/12/15 10:39:49;;;;;;;41.20;23.35;;;-0.70;99.90;;;;;;5074689;28;20401;-67
2022/12/15 10:42:25;;;;;;;38.65;19.38;;;-0.80;99.90;;;;;;5091589;28;21110;-67
2022/12/15 10:44:53;;;;;;;35.60;19.33;;;-0.80;99.90;;;;;;5090447;28;20086;-66
2022/12/15 10:47:25;;;;;;;41.20;19.60;;;-0.80;99.90;;;;;;5092815;28;20115;-67
2022/12/15 10:49:52;;;;;;;46.10;19.80;;;-0.90;99.90;;;;;;5093115;28;20551;-66
2022/12/15 10:52:19;;;;;;;38.05;20.77;;;-1.00;99.90;;;;;;5093511;28;20103;-67
2022/12/15 10:54:48;;;;;;;37.72;20.80;;;-0.90;99.90;;;;;;5092842;28;20036;-66
2022/12/15 10:57:22;;;;;;;39.85;21.35;;;-0.90;99.90;;;;;;5090764;28;20498;-67
2022/12/15 10:59:48;;;;;;;39.67;19.55;;;-0.80;99.90;;;;;;5102187;28;20455;-67
2022/12/15 11:02:19;;;;;;;37.40;22.33;;;-0.70;99.90;;;;;;5102326;28;20071;-67
2022/12/15 11:04:58;;;;;;;43.03;23.73;;;-0.50;99.90;;;;;;5095069;28;20098;-66
2022/12/15 11:07:40;;;;;;;39.40;22.08;;;-0.40;99.90;;;;;;5089940;28;20032;-67
2022/12/15 11:12:50;;;;;;;41.60;24.08;;;-0.30;99.90;;;;;;5098855;28;20085;-67
2022/12/15 11:13:21;;;;;;;47.20;25.35;;;-0.20;99.90;;;;;;5092943;28;20040;-67
2022/12/15 11:15:50;;;;;;;38.83;20.52;;;-0.10;99.90;;;;;;5110574;28;20530;-66
2022/12/15 11:18:48;;;;;;;32.03;17.98;;;-0.10;99.90;;;;;;5102170;28;20047;-66
2022/12/15 11:21:39;;;;;;;43.72;24.20;;;0.10;99.90;;;;;;5105021;28;20115;-66
2022/12/15 11:24:30;;;;;;;37.72;19.70;;;0.10;99.90;;;;;;5087807;28;20040;-66
2022/12/15 11:27:19;;;;;;;39.08;19.23;;;0.30;99.90;;;;;;5089207;28;20067;-66
2022/12/15 11:29:54;;;;;;;41.42;21.40;;;0.40;99.90;;;;;;5102089;28;20055;-66
2022/12/15 11:32:24;;;;;;;42.78;21.85;;;0.50;99.90;;;;;;5100776;28;20039;-66
2022/12/15 11:34:50;;;;;;;39.17;19.65;;;0.60;99.90;;;;;;5094733;28;20036;-66
2022/12/15 11:37:36;;;;;;;43.83;22.67;;;0.60;99.90;;;;;;5103053;28;20039;-66
2022/12/15 11:40:27;;;;;;;40.13;21.60;;;0.70;99.90;;;;;;5084774;28;20040;-65
2022/12/15 11:42:59;;;;;;;37.35;19.73;;;0.80;99.90;;;;;;5096960;28;20043;-66
2022/12/15 11:45:37;;;;;;;38.35;18.88;;;0.80;99.90;;;;;;5104022;28;20070;-66
2022/12/15 11:48:21;;;;;;;42.00;22.10;;;0.80;99.90;;;;;;5092384;28;20040;-67
2022/12/15 11:51:16;;;;;;;37.55;21.85;;;0.80;99.90;;;;;;5095157;28;20059;-67
2022/12/15 11:53:55;;;;;;;39.92;22.13;;;0.80;99.90;;;;;;5097349;28;20027;-66
2022/12/15 11:56:33;;;;;;;36.17;21.30;;;0.80;99.90;;;;;;5091480;28;20043;-66
2022/12/15 11:59:07;;;;;;;36.42;20.45;;;0.80;99.90;;;;;;5091677;28;20040;-66
2022/12/15 12:02:14;;;;;;;38.08;22.50;;;0.80;99.90;;;;;;5073412;28;20036;-66
2022/12/15 12:05:21;;;;;;;42.13;22.88;;;0.80;99.90;;;;;;5091316;28;20032;-67
2022/12/15 12:07:57;;;;;;;37.65;20.90;;;0.70;99.90;;;;;;5078048;28;20148;-66
2022/12/15 12:10:34;;;;;;;41.72;21.52;;;0.80;99.90;;;;;;5091044;28;20047;-66
2022/12/15 12:13:24;;;;;;;37.83;21.90;;;0.80;99.90;;;;;;5081081;28;20047;-66
2022/12/15 12:16:08;;;;;;;36.22;21.30;;;0.80;99.90;;;;;;5092086;28;20044;-67
2022/12/15 12:18:45;;;;;;;39.50;22.92;;;0.80;99.90;;;;;;5098993;28;20043;-67
2022/12/15 12:21:19;;;;;;;35.75;20.35;;;0.90;99.90;;;;;;5083671;28;20040;-67
2022/12/15 12:23:53;;;;;;;40.10;22.55;;;0.90;99.90;;;;;;5073117;28;20122;-67
2022/12/15 12:26:31;;;;;;;36.58;19.77;;;1.00;99.90;;;;;;5097717;28;20489;-66
2022/12/15 12:29:19;;;;;;;36.13;20.77;;;1.00;99.90;;;;;;5111445;28;20508;-67
2022/12/15 12:31:54;;;;;;;37.90;20.23;;;0.90;99.90;;;;;;5107129;28;20409;-66
2022/12/15 12:34:57;;;;;;;41.22;21.35;;;0.90;99.90;;;;;;5087520;28;20072;-67
2022/12/15 12:37:40;;;;;;;43.83;24.55;;;1.00;99.90;;;;;;5089945;28;20036;-67
2022/12/15 12:40:17;;;;;;;44.25;26.17;;;1.10;99.90;;;;;;5072373;28;20043;-67
2022/12/15 12:42:54;;;;;;;41.63;25.35;;;1.20;99.90;;;;;;5090313;28;20402;-67
2022/12/15 12:45:32;;;;;;;44.90;25.35;;;1.20;99.90;;;;;;5091315;28;20510;-67
2022/12/15 12:48:07;;;;;;;37.45;23.52;;;1.20;99.90;;;;;;5090281;28;20380;-67
2022/12/15 12:50:33;;;;;;;42.17;23.70;;;1.20;99.90;;;;;;5091120;28;20119;-67
2022/12/15 12:53:01;;;;;;;43.50;25.48;;;1.10;99.90;;;;;;5091125;28;20110;-67
2022/12/15 12:55:27;;;;;;;40.95;23.45;;;1.10;99.90;;;;;;5090482;28;20087;-67
2022/12/15 12:57:54;;;;;;;43.85;25.15;;;1.10;99.90;;;;;;5089835;28;20075;-66
2022/12/15 13:00:28;;;;;;;43.78;25.42;;;1.10;99.90;;;;;;5091574;28;20086;-66
2022/12/15 13:03:15;;;;;;;40.72;25.23;;;1.10;99.90;;;;;;5091252;28;20040;-66
2022/12/15 13:05:42;;;;;;;44.00;25.60;;;1.10;99.90;;;;;;5088588;28;20032;-66
2022/12/15 13:08:08;;;;;;;42.30;25.25;;;1.20;99.90;;;;;;5090833;28;20486;-66
2022/12/15 13:10:36;;;;;;;45.20;25.95;;;1.30;99.90;;;;;;5091214;28;20047;-66
2022/12/15 13:13:07;;;;;;;41.05;23.70;;;1.30;99.90;;;;;;5090231;28;20046;-66
2022/12/15 13:15:38;;;;;;;41.72;23.95;;;1.40;99.90;;;;;;5097186;28;20053;-66
2022/12/15 13:18:23;;;;;;;44.58;23.55;;;1.40;99.90;;;;;;5090911;28;20040;-66
2022/12/15 13:20:53;;;;;;;38.92;22.40;;;1.40;99.90;;;;;;5091072;28;20202;-68
2022/12/15 13:23:22;;;;;;;40.10;24.13;;;1.50;99.90;;;;;;5088326;28;20039;-66
2022/12/15 13:25:56;;;;;;;45.40;25.27;;;1.50;99.90;;;;;;5090653;28;20559;-67
2022/12/15 13:28:43;;;;;;;40.95;24.92;;;1.50;99.90;;;;;;5091074;28;20040;-67
2022/12/15 13:31:18;;;;;;;39.33;24.50;;;1.50;99.90;;;;;;5094013;28;20490;-66
2022/12/15 13:33:49;;;;;;;35.00;19.50;;;1.50;99.90;;;;;;5095635;28;20533;-66
2022/12/15 13:36:44;;;;;;;;;;;1.40;99.90;;;;;;5091461;28;20101;-66
2022/12/15 13:39:16;;;;;;;42.30;24.58;;;1.40;99.90;;;;;;5070051;28;20402;-66
2022/12/15 13:42:02;;;;;;;44.97;25.48;;;1.40;99.90;;;;;;5093467;28;20044;-67
2022/12/15 13:44:33;;;;;;;37.78;21.45;;;1.40;99.90;;;;;;5094399;28;20036;-67
2022/12/15 13:47:11;;;;;;;44.40;23.33;;;1.30;99.90;;;;;;5095151;28;20039;-67
2022/12/15 13:49:57;;;;;;;41.38;23.50;;;1.30;99.90;;;;;;5078728;28;20039;-66
2022/12/15 13:52:22;;;;;;;42.88;23.90;;;1.20;99.90;;;;;;5079328;28;20135;-67
2022/12/15 13:54:58;;;;;;;41.00;22.40;;;1.20;99.90;;;;;;5093537;28;20170;-67
2022/12/15 13:57:25;;;;;;;48.78;24.80;;;1.20;99.90;;;;;;5093865;28;20513;-67
2022/12/15 14:00:04;;;;;;;44.10;23.98;;;1.20;99.90;;;;;;5093854;28;20521;-66
2022/12/15 14:02:35;;;;;;;44.55;25.60;;;1.10;99.90;;;;;;5094198;28;20036;-66
2022/12/15 14:05:13;;;;;;;45.60;25.23;;;1.10;99.90;;;;;;5088298;28;21136;-67
2022/12/15 14:07:42;;;;;;;46.72;24.77;;;1.10;99.90;;;;;;5093590;28;20078;-67
2022/12/15 14:10:21;;;;;;;47.72;26.13;;;1.20;99.90;;;;;;5075666;28;20048;-66
2022/12/15 14:12:49;;;;;;;51.47;25.38;;;1.10;99.90;;;;;;5093875;28;20051;-67
2022/12/15 14:15:17;;;;;;;54.58;27.45;;;1.10;99.90;;;;;;5103259;28;20478;-67
2022/12/15 14:17:51;;;;;;;49.00;26.35;;;1.10;99.90;;;;;;5103048;28;20043;-67
2022/12/15 14:20:24;;;;;;;48.25;27.48;;;1.00;99.90;;;;;;5093292;28;20402;-67
2022/12/15 14:22:51;;;;;;;49.28;28.08;;;1.00;99.90;;;;;;5094396;28;20043;-67
2022/12/15 14:25:19;;;;;;;49.55;27.05;;;0.90;99.90;;;;;;5095146;28;20042;-67
2022/12/15 14:27:46;;;;;;;53.55;28.52;;;0.90;99.90;;;;;;5095000;28;20051;-66
2022/12/15 14:30:25;;;;;;;51.97;26.75;;;0.90;99.90;;;;;;5095382;28;20122;-67
2022/12/15 14:33:06;;;;;;;44.58;26.30;;;0.90;99.90;;;;;;5094744;28;20062;-67
2022/12/15 14:35:45;;;;;;;47.65;26.67;;;0.80;99.90;;;;;;5094791;28;20394;-67
2022/12/15 14:38:16;;;;;;;44.38;24.85;;;0.80;99.90;;;;;;5097087;28;20032;-67
2022/12/15 14:40:45;;;;;;;43.28;26.15;;;0.80;99.90;;;;;;5095942;28;20099;-66
2022/12/15 14:43:23;;;;;;;46.80;24.67;;;0.80;99.90;;;;;;5100776;28;20032;-68
2022/12/15 14:46:13;;;;;;;47.50;25.27;;;0.90;99.90;;;;;;5100253;28;20043;-68
2022/12/15 14:49:03;;;;;;;44.70;24.90;;;0.90;99.90;;;;;;5093758;28;20036;-68
2022/12/15 14:51:37;;;;;;;46.45;25.85;;;0.90;99.90;;;;;;5093566;28;20047;-67
2022/12/15 14:54:02;;;;;;;47.08;26.00;;;1.00;99.90;;;;;;5081632;28;20050;-68
2022/12/15 14:56:31;;;;;;;46.95;25.60;;;1.00;99.90;;;;;;5102480;28;20028;-67
2022/12/15 14:59:16;;;;;;;44.30;24.85;;;1.10;99.90;;;;;;5094259;28;20040;-67
2022/12/15 15:01:56;;;;;;;49.72;27.05;;;1.10;99.90;;;;;;5092845;28;20035;-68
2022/12/15 15:04:25;;;;;;;49.08;27.00;;;1.00;99.90;;;;;;5094366;28;20035;-68
2022/12/15 15:06:56;;;;;;;49.95;26.75;;;0.90;99.90;;;;;;5094533;28;20032;-68
2022/12/15 15:09:41;;;;;;;49.83;26.20;;;0.80;99.90;;;;;;5092492;28;20048;-68
2022/12/15 15:12:13;;;;;;;48.60;27.08;;;0.70;99.90;;;;;;5102780;28;20482;-68
2022/12/15 15:14:45;;;;;;;52.88;27.58;;;0.50;99.90;;;;;;5109770;28;20040;-68
2022/12/15 15:17:15;;;;;;;48.40;27.80;;;0.40;99.90;;;;;;5093427;28;20040;-70